createdAt,value
2022-09-26T00:01:18.715Z,100
2022-09-26T00:04:22.965Z,100
2022-09-26T00:07:16.998Z,100
2022-09-26T00:11:18.920Z,100
2022-09-26T00:14:19.170Z,100
2022-09-26T00:17:16.724Z,100
2022-09-26T00:21:17.192Z,100
2022-09-26T00:24:17.728Z,100
2022-09-26T00:27:17.008Z,100
2022-09-26T00:31:19.750Z,100
2022-09-26T00:34:18.767Z,100
2022-09-26T00:37:16.889Z,100
2022-09-26T00:41:17.783Z,100
2022-09-26T00:44:50.863Z,100
2022-09-26T00:47:24.173Z,100
2022-09-26T00:51:16.539Z,100
2022-09-26T00:54:18.878Z,100
2022-09-26T00:57:21.639Z,100
2022-09-26T01:01:18.263Z,100
2022-09-26T01:04:17.085Z,100
2022-09-26T01:07:20.022Z,100
2022-09-26T01:11:17.154Z,100
2022-09-26T01:14:16.363Z,100
2022-09-26T01:17:16.618Z,100
2022-09-26T01:22:26.706Z,100
2022-09-26T01:24:46.659Z,100
2022-09-26T01:28:40.367Z,100
2022-09-26T01:31:27.105Z,100
2022-09-26T01:34:25.226Z,100
2022-09-26T01:37:27.094Z,100
2022-09-26T01:41:30.692Z,100
2022-09-26T01:44:27.986Z,100
2022-09-26T01:47:22.031Z,100
2022-09-26T01:51:22.132Z,100
2022-09-26T01:54:21.011Z,100
2022-09-26T01:57:22.732Z,100
2022-09-26T02:01:20.733Z,100
2022-09-26T02:04:22.291Z,100
2022-09-26T02:07:20.721Z,100
2022-09-26T02:11:18.907Z,100
2022-09-26T02:14:21.242Z,100
2022-09-26T02:17:20.765Z,100
2022-09-26T02:21:20.010Z,100
2022-09-26T02:24:17.179Z,100
2022-09-26T02:27:16.941Z,100
2022-09-26T02:31:25.769Z,100
2022-09-26T02:34:17.318Z,100
2022-09-26T02:37:20.115Z,100
2022-09-26T02:41:27.030Z,100
2022-09-26T02:45:06.454Z,100
2022-09-26T02:47:36.830Z,100
2022-09-26T02:51:31.114Z,100
2022-09-26T02:54:24.870Z,100
2022-09-26T02:57:29.034Z,100
2022-09-26T03:01:20.939Z,100
2022-09-26T03:04:26.790Z,100
2022-09-26T03:07:30.055Z,100
2022-09-26T03:11:21.288Z,100
2022-09-26T03:14:18.158Z,100
2022-09-26T03:17:18.045Z,100
2022-09-26T03:21:17.485Z,100
2022-09-26T03:24:17.703Z,100
2022-09-26T03:27:17.884Z,100
2022-09-26T03:31:16.910Z,100
2022-09-26T03:34:17.272Z,100
2022-09-26T03:37:18.091Z,100
2022-09-26T03:41:17.185Z,100
2022-09-26T03:51:17.273Z,100
2022-09-26T03:54:17.023Z,100
2022-09-26T03:57:17.478Z,100
2022-09-26T04:01:19.513Z,100
2022-09-26T04:04:17.054Z,100
2022-09-26T04:07:17.088Z,100
2022-09-26T04:11:18.234Z,100
2022-09-26T04:14:16.616Z,100
2022-09-26T04:17:16.364Z,100
2022-09-26T04:21:16.379Z,100
2022-09-26T04:24:17.465Z,100
2022-09-26T04:27:16.764Z,100
2022-09-26T04:31:16.412Z,100
2022-09-26T04:34:16.750Z,100
2022-09-26T04:37:16.794Z,100
2022-09-26T04:41:18.178Z,100
2022-09-26T04:44:16.314Z,100
2022-09-26T04:47:17.273Z,100
2022-09-26T04:51:18.907Z,100
2022-09-26T04:54:16.674Z,100
2022-09-26T04:57:19.662Z,100
2022-09-26T05:01:18.603Z,100
2022-09-26T05:04:16.783Z,100
2022-09-26T05:07:16.840Z,100
2022-09-26T05:11:18.198Z,100
2022-09-26T05:14:16.713Z,100
2022-09-26T05:17:16.777Z,100
2022-09-26T05:21:16.582Z,100
2022-09-26T05:31:16.786Z,100
2022-09-26T05:34:19.936Z,100
2022-09-26T05:37:16.494Z,100
2022-09-26T05:41:16.754Z,100
2022-09-26T05:44:16.433Z,100
2022-09-26T05:47:16.543Z,100
2022-09-26T05:51:18.837Z,100
2022-09-26T05:54:16.910Z,100
2022-09-26T05:57:16.969Z,100
2022-09-26T06:01:18.271Z,100
2022-09-26T06:04:17.489Z,100
2022-09-26T06:07:17.412Z,100
2022-09-26T06:11:17.835Z,100
2022-09-26T06:14:16.571Z,100
2022-09-26T06:17:16.551Z,100
2022-09-26T06:21:18.220Z,100
2022-09-26T06:24:19.621Z,100
2022-09-26T06:27:16.924Z,100
2022-09-26T06:31:18.560Z,100
2022-09-26T06:34:16.945Z,100
2022-09-26T06:37:16.955Z,100
2022-09-26T06:41:16.918Z,100
2022-09-26T06:44:17.328Z,100
2022-09-26T06:47:16.780Z,100
2022-09-26T06:51:16.376Z,100
2022-09-26T06:54:16.990Z,100
2022-09-26T06:57:16.797Z,100
2022-09-26T07:01:17.096Z,100
2022-09-26T07:04:18.642Z,100
2022-09-26T07:07:17.081Z,100
2022-09-26T07:11:35.244Z,100
2022-09-26T07:14:17.750Z,100
2022-09-26T07:17:17.291Z,100
2022-09-26T07:21:16.493Z,100
2022-09-26T07:31:15.858Z,100
2022-09-26T07:34:18.633Z,100
2022-09-26T07:37:17.609Z,100
2022-09-26T07:41:17.558Z,100
2022-09-26T07:51:16.745Z,100
2022-09-26T07:54:18.209Z,100
2022-09-26T08:01:16.865Z,100
2022-09-26T08:11:18.320Z,100
2022-09-26T08:14:16.852Z,100
2022-09-26T08:17:17.116Z,100
2022-09-26T08:21:16.028Z,100
2022-09-26T08:24:16.597Z,100
2022-09-26T08:31:17.880Z,100
2022-09-26T08:34:21.336Z,100
2022-09-26T08:37:17.167Z,100
2022-09-26T08:41:35.615Z,100
2022-09-26T08:44:39.123Z,100
2022-09-26T08:47:27.700Z,100
2022-09-26T08:51:29.030Z,100
2022-09-26T08:54:18.857Z,100
2022-09-26T08:57:26.925Z,100
2022-09-26T09:01:23.422Z,100
2022-09-26T09:04:23.206Z,100
2022-09-26T09:07:21.528Z,100
2022-09-26T09:11:31.671Z,100
2022-09-26T09:14:35.560Z,100
2022-09-26T09:17:26.797Z,100
2022-09-26T09:21:26.631Z,100
2022-09-26T09:24:23.241Z,100
2022-09-26T09:27:54.410Z,100
2022-09-26T09:31:16.459Z,100
2022-09-26T09:34:23.077Z,100
2022-09-26T09:41:19.557Z,100
2022-09-26T09:44:37.339Z,100
2022-09-26T09:47:18.079Z,100
2022-09-26T09:51:33.252Z,100
2022-09-26T09:54:29.717Z,100
2022-09-26T09:57:31.403Z,100
2022-09-26T10:01:23.530Z,100
2022-09-26T10:04:33.743Z,100
2022-09-26T10:07:16.465Z,100
2022-09-26T10:11:26.008Z,100
2022-09-26T10:14:26.541Z,100
2022-09-26T10:21:16.611Z,100
2022-09-26T10:24:23.157Z,100
2022-09-26T10:27:22.574Z,100
2022-09-26T10:31:23.601Z,100
2022-09-26T10:34:23.987Z,100
2022-09-26T10:37:21.979Z,100
2022-09-26T10:41:23.590Z,100
2022-09-26T10:44:23.049Z,100
2022-09-26T10:51:21.686Z,100
2022-09-26T10:54:21.224Z,100
2022-09-26T10:57:20.928Z,100
2022-09-26T11:01:19.329Z,100
2022-09-26T11:05:56.334Z,100
2022-09-26T11:07:21.934Z,100
2022-09-26T11:11:16.650Z,100
2022-09-26T11:14:27.879Z,100
2022-09-26T11:17:16.641Z,100
2022-09-26T11:21:29.096Z,100
2022-09-26T11:24:24.019Z,100
2022-09-26T11:27:28.058Z,100
2022-09-26T11:31:24.912Z,100
2022-09-26T11:34:24.996Z,100
2022-09-26T11:37:27.542Z,100
2022-09-26T11:41:31.768Z,100
2022-09-26T11:44:54.462Z,100
2022-09-26T11:51:33.043Z,100
2022-09-26T11:54:30.151Z,100
2022-09-26T11:57:33.674Z,99.4273439793412
2022-09-26T12:01:28.203Z,95.84317725983632
2022-09-26T12:04:34.105Z,97.8846060508889
2022-09-26T12:07:22.411Z,100
2022-09-26T12:11:27.196Z,93.71365612137643
2022-09-26T12:14:36.222Z,95.38559863871838
2022-09-26T12:17:22.708Z,98.35683256808109
2022-09-26T12:21:25.031Z,97.90179112872585
2022-09-26T12:24:26.476Z,94.57623194047675
2022-09-26T12:27:24.229Z,93.5016994737129
2022-09-26T12:31:28.934Z,89.80750279102071
2022-09-26T12:34:28.372Z,85.91091895700428
2022-09-26T12:37:43.864Z,89.88540625895564
2022-09-26T12:41:36.009Z,84.69963652454345
2022-09-26T12:44:30.495Z,84.66943813752492
2022-09-26T12:47:34.549Z,83.82367753856809
2022-09-26T12:51:29.793Z,83.3079193325636
2022-09-26T12:54:51.815Z,82.0416229039442
2022-09-26T12:57:28.691Z,83.88039411331935
2022-09-26T13:01:33.577Z,83.53350674549264
2022-09-26T13:04:28.369Z,83.56111209263713
2022-09-26T13:07:28.716Z,85.41922145388317
2022-09-26T13:11:29.233Z,85.72121986752714
2022-09-26T13:14:39.381Z,85.69229123187927
2022-09-26T13:17:21.045Z,87.3265797343179
2022-09-26T13:21:20.602Z,87.41320947724236
2022-09-26T13:24:23.538Z,87.06725387915986
2022-09-26T13:27:23.446Z,88.07814350302941
2022-09-26T13:31:23.805Z,87.71310535140674
2022-09-26T13:34:21.677Z,87.35005550385056
2022-09-26T13:37:33.875Z,87.62256205685351
2022-09-26T13:41:29.610Z,89.10713419110095
2022-09-26T13:44:27.240Z,91.16542739083731
2022-09-26T13:47:27.845Z,94.42620267908418
2022-09-26T13:51:22.710Z,95.12557106579055
2022-09-26T13:54:23.373Z,96.07005220336615
2022-09-26T13:57:37.498Z,97.73589863906757
2022-09-26T14:01:25.856Z,98.11554315510335
2022-09-26T14:04:19.231Z,99.55569646676345
2022-09-26T14:11:23.263Z,100
2022-09-26T14:14:23.881Z,100
2022-09-26T14:18:07.114Z,100
2022-09-26T14:21:33.421Z,100
2022-09-26T14:24:34.892Z,100
2022-09-26T14:27:27.250Z,100
2022-09-26T14:31:32.757Z,100
2022-09-26T14:34:20.981Z,100
2022-09-26T14:37:28.711Z,100
2022-09-26T14:41:19.330Z,100
2022-09-26T14:44:19.778Z,100
2022-09-26T14:47:16.697Z,100
2022-09-26T14:51:35.821Z,100
2022-09-26T14:54:21.482Z,100
2022-09-26T14:57:22.819Z,100
2022-09-26T15:01:24.431Z,100
2022-09-26T15:04:19.533Z,100
2022-09-26T15:07:21.252Z,100
2022-09-26T15:21:24.222Z,100
2022-09-26T15:24:27.110Z,100
2022-09-26T15:27:21.079Z,100
2022-09-26T15:31:20.536Z,100
2022-09-26T15:34:20.612Z,100
2022-09-26T15:37:22.865Z,100
2022-09-26T15:41:18.238Z,100
2022-09-26T15:44:21.541Z,100
2022-09-26T15:47:25.962Z,100
2022-09-26T15:51:21.667Z,100
2022-09-26T15:54:23.221Z,100
2022-09-26T15:57:16.914Z,100
2022-09-26T16:01:18.148Z,100
2022-09-26T16:04:20.929Z,100
2022-09-26T16:07:21.700Z,100
2022-09-26T16:11:16.646Z,100
2022-09-26T16:14:30.272Z,100
2022-09-26T16:17:21.315Z,100
2022-09-26T16:21:19.734Z,100
2022-09-26T16:24:27.981Z,100
2022-09-26T16:27:24.337Z,100
2022-09-26T16:31:25.538Z,100
2022-09-26T16:34:20.084Z,100
2022-09-26T16:37:18.073Z,100
2022-09-26T16:41:42.174Z,100
2022-09-26T16:44:27.575Z,100
2022-09-26T16:47:33.169Z,100
2022-09-26T16:51:19.115Z,100
2022-09-26T16:54:19.037Z,100
2022-09-26T16:57:20.230Z,100
2022-09-26T17:02:20.996Z,100
2022-09-26T17:04:19.630Z,100
2022-09-26T17:07:16.299Z,100
2022-09-26T17:11:16.130Z,100
2022-09-26T17:14:19.731Z,100
2022-09-26T17:17:19.828Z,100
2022-09-26T17:21:16.685Z,100
2022-09-26T17:24:20.805Z,100
2022-09-26T17:27:20.690Z,100
2022-09-26T17:31:20.200Z,100
2022-09-26T17:34:16.345Z,100
2022-09-26T17:37:18.967Z,100
2022-09-26T17:41:16.080Z,100
2022-09-26T17:44:16.372Z,100
2022-09-26T17:47:18.221Z,100
2022-09-26T17:51:15.976Z,100
2022-09-26T17:54:17.847Z,100
2022-09-26T17:57:17.481Z,100
2022-09-26T18:01:21.475Z,100
2022-09-26T18:04:18.039Z,100
2022-09-26T18:07:16.339Z,100
2022-09-26T18:11:18.348Z,100
2022-09-26T18:14:17.241Z,100
2022-09-26T18:17:18.156Z,100
2022-09-26T18:21:18.543Z,100
2022-09-26T18:24:19.914Z,100
2022-09-26T18:27:17.855Z,100
2022-09-26T18:31:22.055Z,100
2022-09-26T18:34:20.014Z,100
2022-09-26T18:37:17.315Z,100
2022-09-26T18:41:21.591Z,100
2022-09-26T18:44:17.543Z,100
2022-09-26T18:47:17.283Z,100
2022-09-26T18:51:16.220Z,100
2022-09-26T18:54:16.871Z,100
2022-09-26T19:01:24.611Z,100
2022-09-26T19:04:19.250Z,100
2022-09-26T19:07:21.041Z,100
2022-09-26T19:11:18.695Z,100
2022-09-26T19:14:19.121Z,100
2022-09-26T19:17:16.899Z,100
2022-09-26T19:21:25.960Z,100
2022-09-26T19:24:27.344Z,100
2022-09-26T19:27:18.997Z,100
2022-09-26T19:31:15.936Z,100
2022-09-26T19:34:18.317Z,100
2022-09-26T19:37:16.377Z,100
2022-09-26T19:41:16.375Z,100
2022-09-26T19:44:16.961Z,100
2022-09-26T19:47:19.263Z,100
2022-09-26T19:51:17.521Z,100
2022-09-26T19:54:18.115Z,100
2022-09-26T19:57:19.433Z,100
2022-09-26T20:01:18.814Z,100
2022-09-26T20:04:18.252Z,100
2022-09-26T20:07:18.666Z,100
2022-09-26T20:11:17.668Z,100
2022-09-26T20:14:23.536Z,100
2022-09-26T20:17:22.544Z,100
2022-09-26T20:21:20.637Z,100
2022-09-26T20:24:19.080Z,100
2022-09-26T20:27:20.532Z,100
2022-09-26T20:31:20.155Z,100
2022-09-26T20:34:19.205Z,100
2022-09-26T20:37:17.552Z,100
2022-09-26T20:41:21.739Z,100
2022-09-26T20:44:21.109Z,100
2022-09-26T20:47:19.198Z,100
2022-09-26T20:51:22.635Z,100
2022-09-26T20:54:24.902Z,100
2022-09-26T20:57:17.364Z,100
2022-09-26T21:01:19.085Z,100
2022-09-26T21:04:19.031Z,100
2022-09-26T21:07:17.155Z,100
2022-09-26T21:11:18.477Z,100
2022-09-26T21:14:16.866Z,100
2022-09-26T21:17:25.891Z,100
2022-09-26T21:21:21.685Z,100
2022-09-26T21:24:24.958Z,100
2022-09-26T21:27:17.427Z,100
2022-09-26T21:31:22.121Z,100
2022-09-26T21:34:19.708Z,100
2022-09-26T21:37:16.350Z,100
2022-09-26T21:41:15.969Z,100
2022-09-26T21:44:22.518Z,100
2022-09-26T21:47:16.459Z,100
2022-09-26T21:51:16.262Z,100
2022-09-26T21:54:21.461Z,100
2022-09-26T21:57:20.984Z,100
2022-09-26T22:01:17.031Z,100
2022-09-26T22:04:16.670Z,100
2022-09-26T22:07:16.623Z,100
2022-09-26T22:11:16.498Z,100
2022-09-26T22:14:16.851Z,100
2022-09-26T22:17:16.825Z,100
2022-09-26T22:21:15.627Z,100
2022-09-26T22:24:16.034Z,100
2022-09-26T22:27:15.995Z,100
2022-09-26T22:31:17.023Z,100
2022-09-26T22:34:16.636Z,100
2022-09-26T22:37:16.649Z,100
2022-09-26T22:41:16.256Z,100
2022-09-26T22:44:16.316Z,100
2022-09-26T22:47:16.366Z,100
2022-09-26T22:51:16.318Z,100
2022-09-26T22:54:16.222Z,100
2022-09-26T22:57:16.914Z,100
2022-09-26T23:01:18.513Z,100
2022-09-26T23:04:16.982Z,100
2022-09-26T23:07:18.503Z,100
2022-09-26T23:11:17.902Z,100
2022-09-26T23:14:16.115Z,100
2022-09-26T23:17:16.255Z,100
2022-09-26T23:21:18.441Z,100
2022-09-26T23:24:16.538Z,100
2022-09-26T23:27:16.507Z,100
2022-09-26T23:31:16.171Z,100
2022-09-26T23:34:16.485Z,98.62286677363568
2022-09-26T23:37:16.699Z,98.70237636383028
2022-09-26T23:41:15.941Z,97.3842921268868
2022-09-26T23:44:16.143Z,97.14388637597199
2022-09-26T23:47:16.305Z,95.54971499729733
2022-09-26T23:51:16.645Z,94.8350834572996
2022-09-26T23:54:17.021Z,95.01546036594333
2022-09-26T23:57:17.105Z,94.41361220048337
